Aviation Digital Data Service (ADDS)

Output produced by METARs form (2214 UTC 24 March 2019)
found at http://www.aviationweather.gov/metar/data/
 
ESSA 242150Z 25008KT CAVOK 03/M00 Q1006 R01L/09//95 R08/09//95 R01R/09//95 NOSIG
TAF ESSA 241730Z 2418/2518 27015G25KT CAVOK 
     BECMG 2418/2420 25009KT 
     PROB40 2503/2507 2500 BR BKN006 
     BECMG 2505/2507 36010KT
       
ESNX 242150Z AUTO 28008KT 9999 NCD M05/M10 Q0999
TAF ESNX 241730Z 2418/2422 29010KT CAVOK
       
ESSD 242150Z AUTO 27003KT 9999 NCD 01/M02 Q1005
ESSB 242150Z AUTO 24009KT 9999 BKN045/// 04/M01 Q1007
TAF ESSB 241730Z 2418/2421 26015G25KT CAVOK 
     BECMG 2418/2420 24009KT
       
ESNG 242150Z 28010KT CAVOK M04/M09 Q0996
TAF ESNG 242030Z 2421/2423 29009KT CAVOK
       
ESMT 242150Z AUTO 25014KT 9999 FEW028/// BKN034/// OVC041/// 05/02 Q1012
TAF ESMT 241710Z 2418/2422 25015KT 9999 SCT020 
     TEMPO 2418/2422 FEW015CB
       
ESUT 242150Z AUTO 29006KT 9999 BKN045/// M04/M07 Q1002
ESGJ 242150Z AUTO 22010KT 9999 SCT007/// OVC009/// 02/01 Q1008 REUP
TAF ESGJ 241730Z 2418/2421 25012KT 9999 -RA FEW030 BKN040 
     PROB40 2418/2421 2000 SHRA BR BKN004
       
ESPA 242150Z 31015KT CAVOK 01/M08 Q0998
TAF ESPA 242030Z 2421/2506 30010KT CAVOK RMK MIL
       
ESMQ 242150Z 20004KT CAVOK 03/M02 Q1012
TAF ESMQ 242030Z 2421/2423 22006KT CAVOK
       
ESIA 242150Z AUTO 24009KT 9999 BKN019/// 02/M00 Q1008
ESOK 242150Z AUTO 17006KT 9999 SCT017/// 01/00 Q1006
TAF ESOK 241730Z 2418/2420 24009KT 9999 SCT035
       
ESNQ 242150Z VRB02KT CAVOK M06/M09 Q0996
TAF ESNQ 242030Z 2421/2424 32009KT CAVOK 
     PROB40 2423/2424 3500 SHRA BKN020CB
       
ESNK 242150Z AUTO VRB02KT 9999 NCD M03/M07 Q1004
TAF ESNK 241430Z 2415/2419 28013KT CAVOK
       
ESMK 242150Z AUTO 24005KT 210V280 9999 NCD 04/01 Q1013
TAF ESMK 241414Z 2415/2418 26012KT 9999 FEW030 
     TEMPO 2415/2418 FEW020TCU
       
ESMX 242150Z 20007KT 9999 FEW009 BKN035 03/01 Q1011
TAF ESMX 241730Z 2418/2422 23007KT 9999 SCT040 
     PROB40 2419/2421 SHRA BKN025CB 
     PROB40 2421/2422 SHRA BKN009 BKN025CB
       
ESSP 242150Z 23010KT 9999 BKN031 04/01 Q1008
TAF ESSP 242030Z 2421/2423 25012KT 9999 BKN035
       
ESGG 242150Z 22009KT 9999 -DZ BKN007 BKN013 OVC029 03/02 Q1009 R21/29//95
TAF ESGG 241730Z 2418/2518 22009KT 9999 BKN020 
     PROB40 2418/2508 3000 SHRA BKN004 BKN020CB 
     BECMG 2509/2511 36010KT
       
ESTL 242150Z AUTO 23009KT 9999 OVC060/// 05/01 Q1013
ESNL 242150Z AUTO 30008KT 270V330 9999 FEW071/// M02/M09 Q1001
ESCF 242150Z AUTO 23008KT 9999 SCT021/// 02/00 Q1008
ESKM 242150Z AUTO 31005KT 9999 NCD 01/M03 Q1004
ESOE 242150Z AUTO 24007KT 9999 FEW016/// OVC020/// 05/01 Q1007
ESNO 242150Z 32007KT CAVOK M01/M09 Q1002
TAF ESNO 242030Z 2421/2423 28009KT CAVOK
       
ESUP 242150Z AUTO VRB03KT 9999 NCD ///// Q0996
ESDF 242150Z AUTO 24002KT 9999 FEW076/// 03/01 Q1013
TAF ESDF 242030Z 2421/2506 23005KT 9999 SCT040 
     BECMG 2501/2503 5000 -RA BKN010 
     PROB30 
     TEMPO 2503/2506 1500 RASN SCT002 BKN004 RMK MIL
       
ESSL 242150Z AUTO 24008KT 210V270 9999 FEW029/// 03/00 Q1008
TAF ESSL 242030Z 2421/2423 25009KT 9999 FEW025 BKN050
       
ESIB 242152Z 20009KT 9999 BKN016 04/03 Q1008
TAF COR ESIB 242037Z 2421/2506 22008KT 9999 BKN015 
     TEMPO 2421/2503 5000 SHRA BKN008 
     PROB30 
     TEMPO 2423/2503 1500 SHRASN BKN004 
     TEMPO 2503/2506 1200 BR BKN004 RMK MIL
       
ESKN 242150Z 26011KT 9999 BKN033 03/M00 Q1007 R26/09//95
TAF ESKN 241730Z 2418/2518 26015G25KT CAVOK 
     BECMG 2418/2420 25008KT 
     PROB40 2504/2510 BKN010 
     BECMG 2506/2509 36010KT
       
ESNS 242150Z 26007KT CAVOK M01/M07 Q1000
TAF ESNS 242030Z 2421/2423 27009KT CAVOK
       
ESGR 242150Z AUTO 23009KT 9999 FEW015/// 03/01 Q1008
ESMS 242150Z 25009KT CAVOK 04/01 Q1014
TAF ESMS 241712Z 2418/2518 24012KT 9999 SCT020 
     TEMPO 2501/2505 3000 SHRAGS BKN005 SCT020CB 
     TEMPO 2505/2514 SHRAGS BKN010 SCT020CB 
     BECMG 2508/2511 32012KT
       
ESNN 242150Z 35003KT 9999 SCT046 BKN062 OVC082 M01/M03 Q1004 R16/09//95
TAF ESNN 242030Z 2421/2423 29003KT CAVOK
       
ESND 242150Z AUTO 31003KT 270V350 9999 FEW036/// SCT046/// BKN072/// 01/M04 Q1003
ESST 242150Z AUTO VRB02KT 9999 NCD 00/M01 Q1005
ESGT 242150Z AUTO 21006KT 9999 FEW005/// SCT018/// BKN034/// 04/02 Q1008 RESHUP RERA
TAF ESGT 241730Z 2418/2420 25013KT 9999 BKN025
       
ESNU 242150Z 29008KT CAVOK M00/M07 Q1002 R14/09//95
TAF ESNU 242030Z 2421/2506 29009KT CAVOK
       
ESOW 242150Z AUTO 24006KT 210V270 9999 NCD 03/M01 Q1007
TAF ESOW 241130Z 2412/2414 24015G25KT CAVOK
       
ESPE 242150Z 31012KT CAVOK M03/M09 Q0999
TAF ESPE 242030Z 2421/2506 30010KT CAVOK 
     PROB40 2504/2506 3000 SN BKN040 RMK MIL
       
ESNV 242150Z AUTO 27005KT 9999 NCD M07/M10 Q1002
ESSV 242150Z AUTO 24011KT 9999 BKN074/// 04/M00 Q1010
TAF ESSV 242030Z 2421/2423 24009KT CAVOK